createdAt,value
2023-05-07T00:01:49.976Z,22.10
2023-05-07T00:04:39.998Z,22.10
2023-05-07T00:07:28.564Z,22.10
2023-05-07T00:10:17.099Z,22.10
2023-05-07T00:13:05.814Z,22.10
2023-05-07T00:15:54.506Z,22.10
2023-05-07T00:18:42.962Z,22.00
2023-05-07T00:21:32.925Z,22.00
2023-05-07T00:24:21.410Z,22.00
2023-05-07T00:27:09.949Z,22.00
2023-05-07T00:29:58.446Z,22.00
2023-05-07T00:32:47.109Z,21.90
2023-05-07T00:35:35.625Z,21.90
2023-05-07T00:38:25.413Z,21.10
2023-05-07T00:41:14.038Z,21.20
2023-05-07T00:44:03.483Z,21.40
2023-05-07T00:46:52.153Z,21.40
2023-05-07T00:49:42.335Z,21.60
2023-05-07T00:52:31.506Z,20.60
2023-05-07T00:55:21.775Z,21.50
2023-05-07T00:58:13.393Z,21.50
2023-05-07T01:01:02.089Z,21.50
2023-05-07T01:03:50.971Z,21.50
2023-05-07T01:06:40.547Z,21.60
2023-05-07T01:09:30.773Z,21.60
2023-05-07T01:12:21.097Z,21.60
2023-05-07T01:15:11.476Z,21.70
2023-05-07T01:18:00.216Z,21.70
2023-05-07T01:20:48.932Z,21.70
2023-05-07T01:23:39.373Z,21.70
2023-05-07T01:26:28.043Z,21.70
2023-05-07T01:29:16.643Z,21.70
2023-05-07T01:32:05.521Z,21.60
2023-05-07T01:34:56.368Z,21.60
2023-05-07T01:37:45.007Z,21.60
2023-05-07T01:40:35.493Z,21.60
2023-05-07T01:43:23.947Z,21.60
2023-05-07T01:46:13.083Z,21.60
2023-05-07T01:49:01.808Z,21.60
2023-05-07T01:51:51.298Z,21.60
2023-05-07T01:54:39.798Z,21.60
2023-05-07T01:57:29.574Z,21.60
2023-05-07T02:00:18.686Z,21.60
2023-05-07T02:03:07.317Z,21.50
2023-05-07T02:05:55.790Z,21.50
2023-05-07T02:08:44.360Z,21.50
2023-05-07T02:11:32.914Z,21.40
2023-05-07T02:14:22.866Z,21.40
2023-05-07T02:17:11.365Z,21.40
2023-05-07T02:19:59.857Z,21.30
2023-05-07T02:22:48.311Z,21.40
2023-05-07T02:25:36.718Z,21.30
2023-05-07T02:28:25.117Z,21.30
2023-05-07T02:31:15.106Z,21.20
2023-05-07T02:34:03.701Z,21.20
2023-05-07T02:36:52.292Z,21.20
2023-05-07T02:39:40.817Z,21.20
2023-05-07T02:42:29.226Z,21.20
2023-05-07T02:45:17.778Z,21.20
2023-05-07T02:48:08.268Z,21.20
2023-05-07T02:50:56.976Z,21.10
2023-05-07T02:53:45.502Z,20.80
2023-05-07T02:56:33.983Z,20.80
2023-05-07T02:59:22.510Z,20.70
2023-05-07T03:02:11.163Z,20.60
2023-05-07T03:05:01.026Z,20.50
2023-05-07T03:07:49.562Z,20.50
2023-05-07T03:10:38.228Z,20.70
2023-05-07T03:13:27.108Z,20.70
2023-05-07T03:16:15.719Z,20.60
2023-05-07T03:19:04.348Z,20.60
2023-05-07T03:21:54.322Z,20.60
2023-05-07T03:24:42.972Z,20.60
2023-05-07T03:27:31.632Z,20.70
2023-05-07T03:30:20.161Z,20.70
2023-05-07T03:33:08.890Z,20.70
2023-05-07T03:35:57.471Z,20.70
2023-05-07T03:38:47.523Z,20.70
2023-05-07T03:41:36.481Z,20.70
2023-05-07T03:44:24.987Z,20.60
2023-05-07T03:47:14.323Z,20.50
2023-05-07T03:50:02.829Z,20.60
2023-05-07T03:52:51.309Z,20.40
2023-05-07T03:55:41.167Z,20.30
2023-05-07T03:58:29.656Z,20.00
2023-05-07T04:01:18.126Z,19.90
2023-05-07T04:04:06.708Z,19.10
2023-05-07T04:06:55.282Z,19.90
2023-05-07T04:09:43.713Z,20.20
2023-05-07T04:12:33.597Z,20.20
2023-05-07T04:15:22.315Z,20.30
2023-05-07T04:18:10.860Z,20.30
2023-05-07T04:20:59.356Z,20.40
2023-05-07T04:23:48.596Z,20.40
2023-05-07T04:26:37.224Z,20.40
2023-05-07T04:29:27.008Z,20.50
2023-05-07T04:32:15.623Z,20.50
2023-05-07T04:35:04.222Z,20.50
2023-05-07T04:37:52.734Z,20.50
2023-05-07T04:40:41.276Z,20.50
2023-05-07T04:43:29.752Z,20.50
2023-05-07T04:46:19.732Z,20.40
2023-05-07T04:49:08.307Z,20.40
2023-05-07T04:51:56.851Z,20.40
2023-05-07T04:54:45.345Z,20.40
2023-05-07T04:57:33.799Z,20.40
2023-05-07T05:00:22.343Z,20.10
2023-05-07T05:28:34.483Z,19.80
2023-05-07T05:31:23.294Z,19.80
2023-05-07T05:34:11.784Z,20.00
2023-05-07T05:37:02.586Z,20.10
2023-05-07T05:39:51.101Z,20.10
2023-05-07T05:42:39.522Z,20.20
2023-05-07T05:48:17.028Z,20.50
2023-05-07T05:51:05.604Z,20.50
2023-05-07T05:53:55.380Z,20.50
2023-05-07T05:56:44.470Z,20.30
2023-05-07T06:05:11.369Z,20.00
2023-05-07T06:07:59.986Z,19.90
2023-05-07T06:10:49.824Z,19.90
2023-05-07T06:13:38.359Z,20.20
2023-05-07T06:22:07.567Z,20.90
2023-05-07T06:24:56.075Z,20.80
2023-05-07T06:27:46.002Z,20.90
2023-05-07T06:30:34.506Z,20.90
2023-05-07T06:36:11.755Z,20.30
2023-05-07T06:39:00.156Z,20.50
2023-05-07T06:41:48.576Z,20.60
2023-05-07T06:44:38.419Z,20.90
2023-05-07T06:47:26.869Z,20.90
2023-05-07T06:50:17.614Z,21.20
2023-05-07T06:53:06.092Z,21.40
2023-05-07T06:55:55.101Z,21.80
2023-05-07T06:58:43.666Z,21.70
2023-05-07T07:01:33.669Z,21.70
2023-05-07T07:04:23.452Z,21.50
2023-05-07T07:07:12.063Z,21.30
2023-05-07T07:10:00.570Z,21.30
2023-05-07T07:12:49.184Z,20.40
2023-05-07T07:15:37.753Z,21.10
2023-05-07T07:18:27.746Z,21.50
2023-05-07T07:21:16.185Z,21.50
2023-05-07T07:24:05.046Z,21.80
2023-05-07T07:32:30.988Z,22.00
2023-05-07T08:03:34.106Z,23.50
2023-05-07T08:06:22.664Z,23.40
2023-05-07T08:09:12.566Z,23.50
2023-05-07T08:12:02.072Z,23.60
2023-05-07T08:14:50.710Z,23.70
2023-05-07T08:17:39.265Z,23.70
2023-05-07T08:20:28.056Z,23.70
2023-05-07T08:23:16.705Z,23.70
2023-05-07T08:26:06.831Z,23.80
2023-05-07T08:28:55.337Z,23.70
2023-05-07T08:31:44.019Z,23.70
2023-05-07T08:34:32.591Z,23.90
2023-05-07T08:37:21.214Z,24.00
2023-05-07T08:40:12.265Z,24.10
2023-05-07T08:43:05.055Z,23.90
2023-05-07T08:45:56.109Z,23.90
2023-05-07T08:48:44.841Z,24.00
2023-05-07T08:51:33.533Z,24.00
2023-05-07T08:54:23.244Z,24.10
2023-05-07T08:57:11.746Z,24.00
2023-05-07T09:00:01.807Z,24.00
2023-05-07T09:02:50.702Z,24.20
2023-05-07T09:05:39.381Z,24.20
2023-05-07T09:08:29.031Z,24.20
2023-05-07T09:11:17.574Z,24.30
2023-05-07T09:14:07.449Z,24.40
2023-05-07T09:16:57.499Z,24.60
2023-05-07T09:19:47.601Z,24.70
2023-05-07T09:22:36.368Z,24.80
2023-05-07T09:25:31.400Z,25.00
2023-05-07T09:28:19.894Z,25.00
2023-05-07T09:31:08.628Z,25.00
2023-05-07T09:33:59.482Z,25.00
2023-05-07T09:36:48.794Z,25.00
2023-05-07T09:39:44.024Z,25.10
2023-05-07T09:42:32.497Z,25.20
2023-05-07T09:45:25.264Z,25.30
2023-05-07T09:48:18.005Z,25.40
2023-05-07T09:51:13.757Z,25.50
2023-05-07T09:54:04.471Z,25.40
2023-05-07T09:56:54.509Z,25.50
2023-05-07T09:59:45.288Z,25.50
2023-05-07T10:02:37.621Z,25.60
2023-05-07T10:05:27.168Z,25.50
2023-05-07T10:08:18.075Z,25.60
2023-05-07T10:11:07.542Z,25.60
2023-05-07T10:13:56.500Z,25.70
2023-05-07T10:16:45.868Z,25.70
2023-05-07T10:19:37.552Z,25.80
2023-05-07T10:22:28.305Z,25.80
2023-05-07T10:25:23.076Z,25.90
2023-05-07T10:28:13.478Z,26.00
2023-05-07T10:31:13.128Z,26.10
2023-05-07T10:36:52.974Z,26.40
2023-05-07T10:39:42.623Z,26.30
2023-05-07T10:42:32.527Z,26.30
2023-05-07T10:45:21.811Z,26.30
2023-05-07T10:48:28.030Z,26.60
2023-05-07T10:57:43.794Z,26.90
2023-05-07T11:09:11.804Z,27.10
2023-05-07T11:12:00.454Z,27.30
2023-05-07T11:17:55.888Z,27.40
2023-05-07T11:21:02.670Z,27.40
2023-05-07T11:41:09.624Z,28.00
2023-05-07T11:55:20.318Z,28.80
2023-05-07T11:58:10.223Z,28.80
2023-05-07T12:00:59.573Z,28.90
2023-05-07T12:03:48.805Z,29.10
2023-05-07T13:17:33.094Z,29.80
2023-05-07T13:20:21.880Z,29.80
2023-05-07T13:23:10.398Z,30.00
2023-05-07T13:25:59.083Z,30.20
2023-05-07T13:28:47.726Z,30.20
2023-05-07T13:31:38.173Z,30.20
2023-05-07T13:34:26.787Z,30.30
2023-05-07T13:37:15.474Z,30.10
2023-05-07T13:40:04.919Z,30.20
2023-05-07T13:42:53.597Z,30.30
2023-05-07T13:45:42.232Z,30.30
2023-05-07T13:48:32.135Z,30.40
2023-05-07T13:51:20.623Z,30.30
2023-05-07T13:54:09.177Z,30.20
2023-05-07T13:56:57.656Z,30.10
2023-05-07T13:59:46.496Z,30.20
2023-05-07T14:02:35.485Z,30.20
2023-05-07T14:05:25.852Z,30.20
2023-05-07T14:08:15.047Z,30.30
2023-05-07T14:11:03.654Z,30.40
2023-05-07T14:13:52.243Z,30.50
2023-05-07T14:16:40.977Z,30.50
2023-05-07T14:19:30.647Z,30.50
2023-05-07T14:22:20.635Z,30.40
2023-05-07T14:25:10.655Z,30.40
2023-05-07T14:27:59.351Z,30.40
2023-05-07T14:30:47.890Z,30.30
2023-05-07T14:33:36.387Z,30.30
2023-05-07T14:36:27.103Z,30.30
2023-05-07T14:56:13.681Z,29.60
2023-05-07T14:59:02.161Z,29.60
2023-05-07T15:01:50.816Z,29.10
2023-05-07T15:04:41.564Z,29.50
2023-05-07T15:07:30.083Z,29.40
2023-05-07T15:10:18.862Z,29.30
2023-05-07T15:13:09.122Z,29.30
2023-05-07T15:15:58.191Z,29.10
2023-05-07T15:18:46.834Z,29.10
2023-05-07T15:21:36.664Z,29.10
2023-05-07T15:24:25.189Z,29.00
2023-05-07T15:27:13.692Z,29.00
2023-05-07T15:30:03.793Z,29.10
2023-05-07T15:32:52.413Z,29.10
2023-05-07T15:35:40.939Z,29.10
2023-05-07T15:38:29.433Z,29.10
2023-05-07T15:41:17.938Z,29.00
2023-05-07T15:44:06.844Z,29.00
2023-05-07T16:26:27.490Z,28.10
2023-05-07T16:29:16.146Z,28.10
2023-05-07T16:32:04.758Z,27.90
2023-05-07T16:34:53.218Z,27.70
2023-05-07T16:37:43.336Z,27.60
2023-05-07T16:40:31.771Z,27.50
2023-05-07T16:43:20.448Z,27.60
2023-05-07T16:46:09.116Z,27.40
2023-05-07T16:48:57.928Z,27.40
2023-05-07T16:51:47.079Z,27.30
2023-05-07T16:54:39.252Z,27.20
2023-05-07T16:57:28.924Z,27.20
2023-05-07T17:00:18.115Z,27.20
2023-05-07T17:03:06.846Z,27.20
2023-05-07T17:05:56.123Z,27.30
2023-05-07T17:08:45.356Z,27.30
2023-05-07T17:11:35.745Z,27.20
2023-05-07T17:14:24.446Z,27.20
2023-05-07T17:17:12.994Z,27.10
2023-05-07T19:07:11.478Z,25.60
2023-05-07T19:10:05.377Z,25.50
2023-05-07T19:13:07.768Z,25.40
2023-05-07T19:15:56.593Z,25.30
2023-05-07T19:18:45.285Z,25.40
2023-05-07T19:21:33.882Z,25.30
2023-05-07T19:24:22.297Z,25.20
2023-05-07T19:27:12.179Z,25.20
2023-05-07T19:30:00.735Z,25.20
2023-05-07T19:32:49.294Z,25.20
2023-05-07T19:35:38.060Z,25.30
2023-05-07T19:38:26.989Z,25.30
2023-05-07T19:41:15.599Z,25.20
2023-05-07T19:44:05.846Z,25.20
2023-05-07T19:46:54.403Z,25.10
2023-05-07T19:49:42.969Z,25.10
2023-05-07T19:52:31.587Z,25.90
2023-05-07T19:55:20.330Z,24.90
2023-05-07T19:58:08.847Z,25.10
2023-05-07T20:00:58.902Z,25.10
2023-05-07T20:03:48.030Z,25.10
2023-05-07T20:06:36.488Z,25.10
2023-05-07T20:09:24.987Z,25.00
2023-05-07T20:12:13.450Z,25.00
2023-05-07T20:17:52.847Z,24.80
2023-05-07T20:20:41.547Z,24.90
2023-05-07T20:34:47.525Z,24.70
2023-05-07T20:40:25.050Z,24.30
2023-05-07T20:43:13.664Z,24.30
2023-05-07T20:46:02.662Z,24.40
2023-05-07T20:48:51.627Z,24.30
2023-05-07T20:51:41.373Z,24.40
2023-05-07T20:54:30.391Z,24.50
2023-05-07T20:57:19.555Z,24.50
2023-05-07T21:00:09.462Z,24.40
2023-05-07T21:02:58.102Z,24.40
2023-05-07T21:05:52.620Z,24.50
2023-05-07T21:08:42.485Z,24.50
2023-05-07T21:11:30.969Z,24.60
2023-05-07T21:14:19.553Z,24.50
2023-05-07T21:17:08.546Z,24.40
2023-05-07T21:19:57.010Z,24.30
2023-05-07T21:22:45.508Z,24.20
2023-05-07T21:25:38.649Z,24.20
2023-05-07T21:28:27.132Z,24.20
2023-05-07T21:31:15.692Z,24.20
2023-05-07T21:34:04.405Z,24.20
2023-05-07T21:36:52.940Z,24.20
2023-05-07T21:39:41.465Z,24.20
2023-05-07T21:42:31.369Z,24.10
2023-05-07T21:45:20.138Z,24.10
2023-05-07T21:48:08.828Z,24.00
2023-05-07T21:51:03.989Z,24.00
2023-05-07T21:53:52.532Z,24.10
2023-05-07T21:56:41.024Z,24.10
2023-05-07T21:59:30.994Z,24.10
2023-05-07T22:02:19.587Z,24.20
2023-05-07T22:05:08.458Z,24.20
2023-05-07T22:07:57.084Z,24.20
2023-05-07T22:10:46.284Z,24.20
2023-05-07T22:13:34.727Z,24.20
2023-05-07T22:16:24.646Z,24.00
2023-05-07T22:19:14.514Z,24.00
2023-05-07T22:22:03.482Z,24.00
2023-05-07T22:24:52.799Z,24.00
2023-05-07T22:27:41.275Z,24.10
2023-05-07T22:30:30.179Z,24.00
2023-05-07T22:33:20.091Z,24.00
2023-05-07T22:36:09.107Z,24.00
2023-05-07T22:38:57.776Z,23.90
2023-05-07T22:41:46.694Z,23.80
2023-05-07T22:44:35.286Z,23.80
2023-05-07T22:47:23.994Z,23.90
2023-05-07T22:50:14.533Z,23.80
